sensor_id;sensor_type;location;lat;lon;timestamp;P1;durP1;ratioP1;P2;durP2;ratioP2
44462;SDS011;30170;52.190;8.702;2022-10-16T00:01:10;972.22;;;923.90;;
44462;SDS011;30170;52.190;8.702;2022-10-16T00:06:06;874.05;;;831.65;;
44462;SDS011;30170;52.190;8.702;2022-10-16T00:08:33;881.40;;;838.20;;
44462;SDS011;30170;52.190;8.702;2022-10-16T00:11:02;987.75;;;938.03;;
44462;SDS011;30170;52.190;8.702;2022-10-16T00:13:31;894.63;;;849.63;;
44462;SDS011;30170;52.190;8.702;2022-10-16T00:15:59;898.45;;;851.30;;
44462;SDS011;30170;52.190;8.702;2022-10-16T00:18:27;898.22;;;852.70;;
44462;SDS011;30170;52.190;8.702;2022-10-16T00:20:55;1001.55;;;948.20;;
44462;SDS011;30170;52.190;8.702;2022-10-16T00:23:27;952.97;;;905.63;;
44462;SDS011;30170;52.190;8.702;2022-10-16T00:25:54;881.97;;;839.20;;
44462;SDS011;30170;52.190;8.702;2022-10-16T00:28:26;965.03;;;917.67;;
44462;SDS011;30170;52.190;8.702;2022-10-16T00:30:53;870.88;;;829.00;;
44462;SDS011;30170;52.190;8.702;2022-10-16T00:33:20;956.70;;;909.80;;
44462;SDS011;30170;52.190;8.702;2022-10-16T00:35:47;871.88;;;830.00;;
44462;SDS011;30170;52.190;8.702;2022-10-16T00:38:14;975.95;;;927.75;;
44462;SDS011;30170;52.190;8.702;2022-10-16T00:40:41;865.10;;;823.45;;
44462;SDS011;30170;52.190;8.702;2022-10-16T00:43:53;855.22;;;814.70;;
44462;SDS011;30170;52.190;8.702;2022-10-16T00:46:01;904.55;;;859.33;;
44462;SDS011;30170;52.190;8.702;2022-10-16T00:48:30;800.25;;;763.00;;
44462;SDS011;30170;52.190;8.702;2022-10-16T00:50:57;798.55;;;761.33;;
44462;SDS011;30170;52.190;8.702;2022-10-16T00:53:25;978.88;;;929.83;;
44462;SDS011;30170;52.190;8.702;2022-10-16T00:55:52;886.55;;;843.55;;
44462;SDS011;30170;52.190;8.702;2022-10-16T00:58:19;793.83;;;756.70;;
44462;SDS011;30170;52.190;8.702;2022-10-16T01:00:47;885.38;;;841.58;;
44462;SDS011;30170;52.190;8.702;2022-10-16T01:03:24;793.60;;;756.78;;
44462;SDS011;30170;52.190;8.702;2022-10-16T01:06:11;876.45;;;832.65;;
44462;SDS011;30170;52.190;8.702;2022-10-16T01:08:58;889.33;;;844.72;;
44462;SDS011;30170;52.190;8.702;2022-10-16T01:11:36;825.15;;;786.53;;
44462;SDS011;30170;52.190;8.702;2022-10-16T01:14:15;977.15;;;929.05;;
44462;SDS011;30170;52.190;8.702;2022-10-16T01:16:54;877.10;;;832.83;;
44462;SDS011;30170;52.190;8.702;2022-10-16T01:22:33;847.88;;;807.97;;
44462;SDS011;30170;52.190;8.702;2022-10-16T01:25:32;888.35;;;844.88;;
44462;SDS011;30170;52.190;8.702;2022-10-16T01:28:15;831.40;;;792.13;;
44462;SDS011;30170;52.190;8.702;2022-10-16T01:30:45;850.70;;;810.80;;
44462;SDS011;30170;52.190;8.702;2022-10-16T01:35:49;921.30;;;875.80;;
44462;SDS011;30170;52.190;8.702;2022-10-16T01:38:25;959.83;;;912.67;;
44462;SDS011;30170;52.190;8.702;2022-10-16T01:41:00;897.42;;;851.63;;
44462;SDS011;30170;52.190;8.702;2022-10-16T01:44:21;974.80;;;926.72;;
44462;SDS011;30170;52.190;8.702;2022-10-16T01:46:31;986.83;;;937.90;;
44462;SDS011;30170;52.190;8.702;2022-10-16T01:48:59;995.60;;;943.42;;
44462;SDS011;30170;52.190;8.702;2022-10-16T01:51:27;1000.70;;;948.30;;
44462;SDS011;30170;52.190;8.702;2022-10-16T01:53:57;976.80;;;928.03;;
44462;SDS011;30170;52.190;8.702;2022-10-16T01:56:26;1011.30;;;956.28;;
44462;SDS011;30170;52.190;8.702;2022-10-16T01:58:58;951.60;;;904.80;;
44462;SDS011;30170;52.190;8.702;2022-10-16T02:01:33;846.55;;;806.75;;
44462;SDS011;30170;52.190;8.702;2022-10-16T02:04:05;962.10;;;914.63;;
44462;SDS011;30170;52.190;8.702;2022-10-16T02:06:37;892.38;;;847.83;;
44462;SDS011;30170;52.190;8.702;2022-10-16T02:09:04;936.38;;;890.53;;
44462;SDS011;30170;52.190;8.702;2022-10-16T02:11:31;882.30;;;838.90;;
44462;SDS011;30170;52.190;8.702;2022-10-16T02:13:59;881.17;;;838.45;;
44462;SDS011;30170;52.190;8.702;2022-10-16T02:16:40;976.63;;;928.63;;
44462;SDS011;30170;52.190;8.702;2022-10-16T02:19:09;893.00;;;848.47;;
44462;SDS011;30170;52.190;8.702;2022-10-16T02:29:37;814.67;;;772.28;;
44462;SDS011;30170;52.190;8.702;2022-10-16T02:32:07;806.55;;;765.20;;
44462;SDS011;30170;52.190;8.702;2022-10-16T02:34:36;766.25;;;730.45;;
44462;SDS011;30170;52.190;8.702;2022-10-16T02:37:04;785.08;;;748.58;;
44462;SDS011;30170;52.190;8.702;2022-10-16T02:39:32;826.83;;;784.72;;
44462;SDS011;30170;52.190;8.702;2022-10-16T02:42:00;726.65;;;692.22;;
44462;SDS011;30170;52.190;8.702;2022-10-16T02:44:27;842.20;;;799.25;;
44462;SDS011;30170;52.190;8.702;2022-10-16T02:46:54;759.50;;;723.65;;
44462;SDS011;30170;52.190;8.702;2022-10-16T02:49:21;855.63;;;812.05;;
44462;SDS011;30170;52.190;8.702;2022-10-16T02:51:48;890.75;;;846.65;;
44462;SDS011;30170;52.190;8.702;2022-10-16T02:54:14;889.70;;;845.22;;
44462;SDS011;30170;52.190;8.702;2022-10-16T02:56:41;887.13;;;842.90;;
44462;SDS011;30170;52.190;8.702;2022-10-16T02:59:08;863.63;;;819.95;;
44462;SDS011;30170;52.190;8.702;2022-10-16T03:01:34;820.25;;;778.25;;
44462;SDS011;30170;52.190;8.702;2022-10-16T03:04:02;760.88;;;725.70;;
44462;SDS011;30170;52.190;8.702;2022-10-16T03:06:29;842.90;;;799.70;;
44462;SDS011;30170;52.190;8.702;2022-10-16T03:08:56;800.95;;;763.75;;
44462;SDS011;30170;52.190;8.702;2022-10-16T03:11:22;798.58;;;761.42;;
44462;SDS011;30170;52.190;8.702;2022-10-16T03:13:49;878.40;;;834.40;;
44462;SDS011;30170;52.190;8.702;2022-10-16T03:16:16;885.60;;;841.10;;
44462;SDS011;30170;52.190;8.702;2022-10-16T03:18:43;973.30;;;925.35;;
44462;SDS011;30170;52.190;8.702;2022-10-16T03:21:09;998.45;;;945.63;;
44462;SDS011;30170;52.190;8.702;2022-10-16T03:23:36;955.20;;;908.55;;
44462;SDS011;30170;52.190;8.702;2022-10-16T03:26:03;891.80;;;845.72;;
44462;SDS011;30170;52.190;8.702;2022-10-16T03:28:29;869.83;;;826.30;;
44462;SDS011;30170;52.190;8.702;2022-10-16T03:30:56;854.53;;;811.55;;
44462;SDS011;30170;52.190;8.702;2022-10-16T03:33:23;769.47;;;733.67;;
44462;SDS011;30170;52.190;8.702;2022-10-16T03:35:53;859.83;;;816.55;;
44462;SDS011;30170;52.190;8.702;2022-10-16T03:38:20;830.03;;;787.42;;
44462;SDS011;30170;52.190;8.702;2022-10-16T03:40:47;769.97;;;734.25;;
44462;SDS011;30170;52.190;8.702;2022-10-16T03:43:14;848.03;;;805.17;;
44462;SDS011;30170;52.190;8.702;2022-10-16T03:45:41;889.72;;;845.78;;
44462;SDS011;30170;52.190;8.702;2022-10-16T03:48:10;880.00;;;835.85;;
44462;SDS011;30170;52.190;8.702;2022-10-16T03:50:37;813.95;;;776.20;;
44462;SDS011;30170;52.190;8.702;2022-10-16T03:53:04;850.20;;;806.95;;
44462;SDS011;30170;52.190;8.702;2022-10-16T03:55:30;774.28;;;734.05;;
44462;SDS011;30170;52.190;8.702;2022-10-16T03:57:57;836.15;;;793.58;;
44462;SDS011;30170;52.190;8.702;2022-10-16T04:00:24;764.45;;;729.00;;
44462;SDS011;30170;52.190;8.702;2022-10-16T04:02:51;831.65;;;789.28;;
44462;SDS011;30170;52.190;8.702;2022-10-16T04:05:17;707.33;;;674.03;;
44462;SDS011;30170;52.190;8.702;2022-10-16T04:07:44;698.78;;;665.78;;
44462;SDS011;30170;52.190;8.702;2022-10-16T04:10:11;804.08;;;762.35;;
44462;SDS011;30170;52.190;8.702;2022-10-16T04:12:37;806.17;;;765.05;;
44462;SDS011;30170;52.190;8.702;2022-10-16T04:15:04;780.92;;;744.83;;
44462;SDS011;30170;52.190;8.702;2022-10-16T04:17:31;736.58;;;702.35;;
44462;SDS011;30170;52.190;8.702;2022-10-16T04:19:58;734.75;;;699.85;;
44462;SDS011;30170;52.190;8.702;2022-10-16T04:22:25;703.55;;;670.20;;
44462;SDS011;30170;52.190;8.702;2022-10-16T04:24:52;749.38;;;710.38;;
44462;SDS011;30170;52.190;8.702;2022-10-16T04:27:19;779.88;;;739.28;;
44462;SDS011;30170;52.190;8.702;2022-10-16T04:29:46;660.90;;;629.25;;
44462;SDS011;30170;52.190;8.702;2022-10-16T04:32:13;721.20;;;687.42;;
44462;SDS011;30170;52.190;8.702;2022-10-16T04:34:39;701.25;;;668.20;;
44462;SDS011;30170;52.190;8.702;2022-10-16T04:37:06;655.92;;;624.97;;
44462;SDS011;30170;52.190;8.702;2022-10-16T04:39:33;684.97;;;652.65;;
44462;SDS011;30170;52.190;8.702;2022-10-16T04:42:00;781.38;;;740.88;;
44462;SDS011;30170;52.190;8.702;2022-10-16T04:44:27;778.88;;;738.30;;
44462;SDS011;30170;52.190;8.702;2022-10-16T04:46:53;795.40;;;754.45;;
44462;SDS011;30170;52.190;8.702;2022-10-16T04:49:20;657.03;;;625.72;;
44462;SDS011;30170;52.190;8.702;2022-10-16T04:51:47;747.63;;;708.42;;
44462;SDS011;30170;52.190;8.702;2022-10-16T04:54:13;787.67;;;747.72;;
44462;SDS011;30170;52.190;8.702;2022-10-16T04:56:40;926.95;;;880.92;;
44462;SDS011;30170;52.190;8.702;2022-10-16T04:59:13;725.50;;;691.45;;
44462;SDS011;30170;52.190;8.702;2022-10-16T05:01:40;848.15;;;805.17;;
44462;SDS011;30170;52.190;8.702;2022-10-16T05:04:07;839.22;;;799.90;;
44462;SDS011;30170;52.190;8.702;2022-10-16T05:06:34;992.30;;;941.60;;
44462;SDS011;30170;52.190;8.702;2022-10-16T05:09:01;759.97;;;724.58;;
44462;SDS011;30170;52.190;8.702;2022-10-16T05:11:28;792.38;;;755.58;;
44462;SDS011;30170;52.190;8.702;2022-10-16T05:13:55;804.05;;;766.60;;
44462;SDS011;30170;52.190;8.702;2022-10-16T05:16:22;749.55;;;714.53;;
44462;SDS011;30170;52.190;8.702;2022-10-16T05:18:49;727.40;;;693.13;;
44462;SDS011;30170;52.190;8.702;2022-10-16T05:21:21;753.45;;;718.33;;
44462;SDS011;30170;52.190;8.702;2022-10-16T05:23:48;739.05;;;704.25;;
44462;SDS011;30170;52.190;8.702;2022-10-16T05:26:14;737.95;;;699.13;;
44462;SDS011;30170;52.190;8.702;2022-10-16T05:28:41;670.05;;;637.90;;
44462;SDS011;30170;52.190;8.702;2022-10-16T05:31:08;696.70;;;664.10;;
44462;SDS011;30170;52.190;8.702;2022-10-16T05:33:36;700.10;;;666.97;;
44462;SDS011;30170;52.190;8.702;2022-10-16T05:36:04;892.85;;;848.70;;
44462;SDS011;30170;52.190;8.702;2022-10-16T05:38:33;660.28;;;628.78;;
44462;SDS011;30170;52.190;8.702;2022-10-16T05:41:04;656.67;;;625.83;;
44462;SDS011;30170;52.190;8.702;2022-10-16T05:43:31;613.90;;;584.17;;
44462;SDS011;30170;52.190;8.702;2022-10-16T05:46:04;657.60;;;626.30;;
44462;SDS011;30170;52.190;8.702;2022-10-16T05:48:32;737.25;;;698.92;;
44462;SDS011;30170;52.190;8.702;2022-10-16T05:51:00;697.50;;;660.92;;
44462;SDS011;30170;52.190;8.702;2022-10-16T05:53:30;618.63;;;588.45;;
44462;SDS011;30170;52.190;8.702;2022-10-16T05:55:58;622.38;;;592.38;;
44462;SDS011;30170;52.190;8.702;2022-10-16T05:58:28;749.30;;;710.22;;
44462;SDS011;30170;52.190;8.702;2022-10-16T06:00:57;725.85;;;687.58;;
44462;SDS011;30170;52.190;8.702;2022-10-16T06:03:26;696.20;;;663.45;;
44462;SDS011;30170;52.190;8.702;2022-10-16T06:05:53;681.45;;;648.97;;
44462;SDS011;30170;52.190;8.702;2022-10-16T06:08:21;757.05;;;717.42;;
44462;SDS011;30170;52.190;8.702;2022-10-16T06:10:49;767.30;;;727.13;;
44462;SDS011;30170;52.190;8.702;2022-10-16T06:13:27;727.65;;;693.47;;
44462;SDS011;30170;52.190;8.702;2022-10-16T06:15:56;840.22;;;797.47;;
44462;SDS011;30170;52.190;8.702;2022-10-16T06:18:24;791.40;;;750.33;;
44462;SDS011;30170;52.190;8.702;2022-10-16T06:20:52;646.70;;;615.10;;
44462;SDS011;30170;52.190;8.702;2022-10-16T06:23:19;734.17;;;699.90;;
44462;SDS011;30170;52.190;8.702;2022-10-16T06:25:46;755.42;;;720.08;;
44462;SDS011;30170;52.190;8.702;2022-10-16T06:28:13;777.63;;;741.70;;
44462;SDS011;30170;52.190;8.702;2022-10-16T06:30:40;898.10;;;853.40;;
44462;SDS011;30170;52.190;8.702;2022-10-16T06:33:10;883.15;;;839.20;;
44462;SDS011;30170;52.190;8.702;2022-10-16T06:35:37;919.25;;;867.15;;
44462;SDS011;30170;52.190;8.702;2022-10-16T06:38:03;902.63;;;855.20;;
44462;SDS011;30170;52.190;8.702;2022-10-16T06:40:30;890.17;;;846.22;;
44462;SDS011;30170;52.190;8.702;2022-10-16T06:42:57;977.90;;;929.03;;
44462;SDS011;30170;52.190;8.702;2022-10-16T06:45:24;900.92;;;854.83;;
44462;SDS011;30170;52.190;8.702;2022-10-16T06:47:50;984.90;;;935.25;;
44462;SDS011;30170;52.190;8.702;2022-10-16T06:50:17;900.17;;;854.28;;
44462;SDS011;30170;52.190;8.702;2022-10-16T06:52:44;991.80;;;940.65;;
44462;SDS011;30170;52.190;8.702;2022-10-16T06:55:10;866.90;;;825.40;;
44462;SDS011;30170;52.190;8.702;2022-10-16T06:57:37;970.88;;;922.03;;
44462;SDS011;30170;52.190;8.702;2022-10-16T07:00:04;817.47;;;778.70;;
44462;SDS011;30170;52.190;8.702;2022-10-16T07:02:33;854.25;;;812.70;;
44462;SDS011;30170;52.190;8.702;2022-10-16T07:04:59;716.08;;;682.38;;
44462;SDS011;30170;52.190;8.702;2022-10-16T07:07:26;883.20;;;840.22;;
44462;SDS011;30170;52.190;8.702;2022-10-16T07:09:53;665.00;;;629.58;;
44462;SDS011;30170;52.190;8.702;2022-10-16T07:12:20;638.60;;;604.50;;
44462;SDS011;30170;52.190;8.702;2022-10-16T07:14:46;579.03;;;550.60;;
44462;SDS011;30170;52.190;8.702;2022-10-16T07:17:13;585.65;;;556.97;;
44462;SDS011;30170;52.190;8.702;2022-10-16T07:19:40;702.22;;;665.25;;
44462;SDS011;30170;52.190;8.702;2022-10-16T07:22:07;739.97;;;701.25;;
44462;SDS011;30170;52.190;8.702;2022-10-16T07:24:33;739.92;;;700.95;;
44462;SDS011;30170;52.190;8.702;2022-10-16T07:27:00;640.80;;;609.85;;
44462;SDS011;30170;52.190;8.702;2022-10-16T07:29:27;712.80;;;675.38;;
44462;SDS011;30170;52.190;8.702;2022-10-16T07:31:54;642.45;;;611.17;;
44462;SDS011;30170;52.190;8.702;2022-10-16T07:34:20;868.30;;;824.65;;
44462;SDS011;30170;52.190;8.702;2022-10-16T07:36:48;829.83;;;787.10;;
44462;SDS011;30170;52.190;8.702;2022-10-16T07:39:16;901.55;;;856.67;;
44462;SDS011;30170;52.190;8.702;2022-10-16T07:41:43;998.10;;;946.92;;
44462;SDS011;30170;52.190;8.702;2022-10-16T07:44:09;906.75;;;860.33;;
44462;SDS011;30170;52.190;8.702;2022-10-16T07:46:36;836.15;;;796.67;;
44462;SDS011;30170;52.190;8.702;2022-10-16T07:49:03;758.97;;;723.70;;
44462;SDS011;30170;52.190;8.702;2022-10-16T07:51:30;770.08;;;729.60;;
44462;SDS011;30170;52.190;8.702;2022-10-16T07:53:57;741.33;;;706.65;;
44462;SDS011;30170;52.190;8.702;2022-10-16T07:56:24;828.33;;;785.63;;
44462;SDS011;30170;52.190;8.702;2022-10-16T07:58:51;861.20;;;819.78;;
44462;SDS011;30170;52.190;8.702;2022-10-16T08:01:18;1004.33;;;949.97;;
44462;SDS011;30170;52.190;8.702;2022-10-16T08:03:49;1004.90;;;952.33;;
44462;SDS011;30170;52.190;8.702;2022-10-16T08:06:18;906.13;;;860.10;;
44462;SDS011;30170;52.190;8.702;2022-10-16T08:08:53;998.35;;;947.70;;
44462;SDS011;30170;52.190;8.702;2022-10-16T08:11:21;995.10;;;945.05;;
44462;SDS011;30170;52.190;8.702;2022-10-16T08:13:48;1015.08;;;960.60;;
44462;SDS011;30170;52.190;8.702;2022-10-16T08:16:14;910.63;;;862.58;;
44462;SDS011;30170;52.190;8.702;2022-10-16T08:18:41;913.85;;;865.72;;
44462;SDS011;30170;52.190;8.702;2022-10-16T08:21:12;926.72;;;875.22;;
44462;SDS011;30170;52.190;8.702;2022-10-16T08:23:46;1020.15;;;960.88;;
44462;SDS011;30170;52.190;8.702;2022-10-16T08:26:22;935.78;;;882.10;;
44462;SDS011;30170;52.190;8.702;2022-10-16T08:28:49;1004.53;;;952.63;;
44462;SDS011;30170;52.190;8.702;2022-10-16T08:31:17;1010.35;;;957.35;;
44462;SDS011;30170;52.190;8.702;2022-10-16T08:33:44;1014.38;;;958.28;;
44462;SDS011;30170;52.190;8.702;2022-10-16T08:36:13;914.50;;;866.20;;
44462;SDS011;30170;52.190;8.702;2022-10-16T08:38:40;1015.97;;;960.85;;
44462;SDS011;30170;52.190;8.702;2022-10-16T08:44:27;931.20;;;872.35;;
44462;SDS011;30170;52.190;8.702;2022-10-16T08:50:00;918.17;;;868.42;;
44462;SDS011;30170;52.190;8.702;2022-10-16T08:52:35;1001.13;;;949.53;;
44462;SDS011;30170;52.190;8.702;2022-10-16T08:55:06;987.95;;;938.35;;
44462;SDS011;30170;52.190;8.702;2022-10-16T08:57:42;941.15;;;895.08;;
44462;SDS011;30170;52.190;8.702;2022-10-16T09:00:12;978.15;;;930.00;;
44462;SDS011;30170;52.190;8.702;2022-10-16T09:10:56;1000.13;;;947.72;;
44462;SDS011;30170;52.190;8.702;2022-10-16T09:16:27;1020.43;;;962.87;;
44462;SDS011;30170;52.190;8.702;2022-10-16T09:21:42;944.85;;;884.20;;
44462;SDS011;30170;52.190;8.702;2022-10-16T09:24:11;942.30;;;882.78;;
44462;SDS011;30170;52.190;8.702;2022-10-16T09:26:42;937.15;;;876.63;;
44462;SDS011;30170;52.190;8.702;2022-10-16T09:29:11;1030.82;;;965.75;;
44462;SDS011;30170;52.190;8.702;2022-10-16T09:31:39;932.58;;;878.70;;
44462;SDS011;30170;52.190;8.702;2022-10-16T09:34:50;932.00;;;873.67;;
44462;SDS011;30170;52.190;8.702;2022-10-16T09:37:00;932.03;;;875.35;;
44462;SDS011;30170;52.190;8.702;2022-10-16T09:39:50;928.75;;;875.35;;
44462;SDS011;30170;52.190;8.702;2022-10-16T09:44:56;913.55;;;864.33;;
44462;SDS011;30170;52.190;8.702;2022-10-16T09:47:23;1020.42;;;960.58;;
44462;SDS011;30170;52.190;8.702;2022-10-16T09:50:03;863.35;;;821.85;;
44462;SDS011;30170;52.190;8.702;2022-10-16T09:52:45;916.00;;;870.67;;
44462;SDS011;30170;52.190;8.702;2022-10-16T09:55:16;947.10;;;900.50;;
44462;SDS011;30170;52.190;8.702;2022-10-16T09:57:53;768.53;;;732.58;;
44462;SDS011;30170;52.190;8.702;2022-10-16T10:00:21;868.20;;;824.38;;
44462;SDS011;30170;52.190;8.702;2022-10-16T10:02:49;880.95;;;836.75;;
44462;SDS011;30170;52.190;8.702;2022-10-16T10:05:18;800.47;;;762.95;;
44462;SDS011;30170;52.190;8.702;2022-10-16T10:07:56;861.25;;;817.67;;
44462;SDS011;30170;52.190;8.702;2022-10-16T10:10:32;809.33;;;771.80;;
44462;SDS011;30170;52.190;8.702;2022-10-16T10:13:21;786.42;;;749.50;;
44462;SDS011;30170;52.190;8.702;2022-10-16T10:15:50;879.40;;;835.28;;
44462;SDS011;30170;52.190;8.702;2022-10-16T10:18:19;825.08;;;786.58;;
44462;SDS011;30170;52.190;8.702;2022-10-16T10:20:59;862.25;;;818.65;;
44462;SDS011;30170;52.190;8.702;2022-10-16T10:23:27;751.78;;;716.75;;
44462;SDS011;30170;52.190;8.702;2022-10-16T10:25:58;814.80;;;772.50;;
44462;SDS011;30170;52.190;8.702;2022-10-16T10:36:35;853.83;;;810.35;;
44462;SDS011;30170;52.190;8.702;2022-10-16T10:50:19;882.78;;;838.78;;
44462;SDS011;30170;52.190;8.702;2022-10-16T11:06:34;783.20;;;742.80;;
44462;SDS011;30170;52.190;8.702;2022-10-16T11:09:18;668.00;;;636.38;;
44462;SDS011;30170;52.190;8.702;2022-10-16T11:11:56;727.10;;;689.40;;
44462;SDS011;30170;52.190;8.702;2022-10-16T11:17:13;682.38;;;650.10;;
44462;SDS011;30170;52.190;8.702;2022-10-16T11:20:14;755.00;;;715.83;;
44462;SDS011;30170;52.190;8.702;2022-10-16T11:27:56;624.53;;;594.03;;
44462;SDS011;30170;52.190;8.702;2022-10-16T11:30:47;613.03;;;583.25;;
44462;SDS011;30170;52.190;8.702;2022-10-16T11:35:53;682.42;;;646.42;;
44462;SDS011;30170;52.190;8.702;2022-10-16T11:41:16;697.95;;;661.10;;
44462;SDS011;30170;52.190;8.702;2022-10-16T11:43:58;636.92;;;605.90;;
44462;SDS011;30170;52.190;8.702;2022-10-16T11:46:31;632.83;;;602.22;;
44462;SDS011;30170;52.190;8.702;2022-10-16T11:49:21;720.08;;;682.47;;
44462;SDS011;30170;52.190;8.702;2022-10-16T11:57:09;638.00;;;606.95;;
44462;SDS011;30170;52.190;8.702;2022-10-16T11:59:57;670.60;;;638.75;;
44462;SDS011;30170;52.190;8.702;2022-10-16T12:08:15;982.42;;;933.58;;
44462;SDS011;30170;52.190;8.702;2022-10-16T12:10:44;814.92;;;773.38;;
44462;SDS011;30170;52.190;8.702;2022-10-16T12:18:31;705.92;;;668.90;;
44462;SDS011;30170;52.190;8.702;2022-10-16T12:20:58;704.53;;;671.55;;
44462;SDS011;30170;52.190;8.702;2022-10-16T12:23:38;659.22;;;627.88;;
44462;SDS011;30170;52.190;8.702;2022-10-16T12:26:13;694.75;;;661.10;;
44462;SDS011;30170;52.190;8.702;2022-10-16T12:28:40;691.45;;;658.45;;
44462;SDS011;30170;52.190;8.702;2022-10-16T12:31:08;720.65;;;683.20;;
44462;SDS011;30170;52.190;8.702;2022-10-16T12:33:56;815.95;;;774.67;;
44462;SDS011;30170;52.190;8.702;2022-10-16T12:36:29;743.67;;;708.78;;
44462;SDS011;30170;52.190;8.702;2022-10-16T12:38:59;718.92;;;685.30;;
44462;SDS011;30170;52.190;8.702;2022-10-16T12:41:28;742.08;;;707.58;;
44462;SDS011;30170;52.190;8.702;2022-10-16T12:43:56;788.85;;;752.15;;
44462;SDS011;30170;52.190;8.702;2022-10-16T13:00:03;648.20;;;617.00;;
44462;SDS011;30170;52.190;8.702;2022-10-16T13:06:04;561.67;;;533.55;;
44462;SDS011;30170;52.190;8.702;2022-10-16T13:17:20;751.17;;;712.47;;
44462;SDS011;30170;52.190;8.702;2022-10-16T13:27:56;817.90;;;779.00;;
44462;SDS011;30170;52.190;8.702;2022-10-16T13:30:27;814.95;;;776.67;;
44462;SDS011;30170;52.190;8.702;2022-10-16T13:35:48;1009.80;;;954.60;;
44462;SDS011;30170;52.190;8.702;2022-10-16T13:38:20;906.03;;;858.28;;
44462;SDS011;30170;52.190;8.702;2022-10-16T13:43:27;907.35;;;859.15;;
44462;SDS011;30170;52.190;8.702;2022-10-16T13:46:10;1007.63;;;952.55;;
44462;SDS011;30170;52.190;8.702;2022-10-16T13:48:39;1009.15;;;951.17;;
44462;SDS011;30170;52.190;8.702;2022-10-16T13:51:13;1016.55;;;956.53;;
44462;SDS011;30170;52.190;8.702;2022-10-16T13:53:42;1009.33;;;952.70;;
44462;SDS011;30170;52.190;8.702;2022-10-16T13:56:14;910.35;;;863.10;;
44462;SDS011;30170;52.190;8.702;2022-10-16T13:58:44;903.38;;;857.20;;
44462;SDS011;30170;52.190;8.702;2022-10-16T14:01:18;986.83;;;936.22;;
44462;SDS011;30170;52.190;8.702;2022-10-16T14:03:59;1004.10;;;950.78;;
44462;SDS011;30170;52.190;8.702;2022-10-16T14:06:29;914.95;;;865.08;;
44462;SDS011;30170;52.190;8.702;2022-10-16T14:08:59;997.50;;;944.00;;
44462;SDS011;30170;52.190;8.702;2022-10-16T14:11:35;996.03;;;945.35;;
44462;SDS011;30170;52.190;8.702;2022-10-16T14:14:11;997.67;;;946.70;;
44462;SDS011;30170;52.190;8.702;2022-10-16T14:16:39;898.97;;;853.25;;
44462;SDS011;30170;52.190;8.702;2022-10-16T14:19:17;1000.42;;;949.17;;
44462;SDS011;30170;52.190;8.702;2022-10-16T14:21:48;893.80;;;848.78;;
44462;SDS011;30170;52.190;8.702;2022-10-16T14:24:24;979.83;;;930.80;;
44462;SDS011;30170;52.190;8.702;2022-10-16T14:26:57;979.13;;;930.35;;
44462;SDS011;30170;52.190;8.702;2022-10-16T14:29:24;894.40;;;850.45;;
44462;SDS011;30170;52.190;8.702;2022-10-16T14:32:00;977.03;;;929.05;;
44462;SDS011;30170;52.190;8.702;2022-10-16T14:34:36;983.20;;;933.97;;
44462;SDS011;30170;52.190;8.702;2022-10-16T14:37:08;986.25;;;936.65;;
44462;SDS011;30170;52.190;8.702;2022-10-16T14:39:48;982.03;;;932.97;;
44462;SDS011;30170;52.190;8.702;2022-10-16T14:42:16;900.45;;;855.90;;
44462;SDS011;30170;52.190;8.702;2022-10-16T14:44:46;884.60;;;841.40;;
44462;SDS011;30170;52.190;8.702;2022-10-16T14:47:14;981.83;;;932.95;;
44462;SDS011;30170;52.190;8.702;2022-10-16T14:49:48;982.05;;;933.47;;
44462;SDS011;30170;52.190;8.702;2022-10-16T14:52:15;902.55;;;857.55;;
44462;SDS011;30170;52.190;8.702;2022-10-16T14:54:42;988.17;;;938.47;;
44462;SDS011;30170;52.190;8.702;2022-10-16T14:57:19;987.88;;;938.50;;
44462;SDS011;30170;52.190;8.702;2022-10-16T14:59:49;980.75;;;931.25;;
44462;SDS011;30170;52.190;8.702;2022-10-16T15:07:45;875.65;;;830.72;;
44462;SDS011;30170;52.190;8.702;2022-10-16T15:10:12;933.00;;;887.05;;
44462;SDS011;30170;52.190;8.702;2022-10-16T15:12:40;1004.45;;;951.90;;
44462;SDS011;30170;52.190;8.702;2022-10-16T15:15:49;994.55;;;944.03;;
44462;SDS011;30170;52.190;8.702;2022-10-16T15:18:04;943.72;;;897.17;;
44462;SDS011;30170;52.190;8.702;2022-10-16T15:20:33;827.05;;;788.08;;
44462;SDS011;30170;52.190;8.702;2022-10-16T15:23:05;813.90;;;775.80;;
44462;SDS011;30170;52.190;8.702;2022-10-16T15:25:38;837.90;;;798.47;;
44462;SDS011;30170;52.190;8.702;2022-10-16T15:28:09;930.80;;;884.92;;
44462;SDS011;30170;52.190;8.702;2022-10-16T15:30:37;851.25;;;811.15;;
44462;SDS011;30170;52.190;8.702;2022-10-16T15:33:05;953.78;;;906.50;;
44462;SDS011;30170;52.190;8.702;2022-10-16T15:35:37;807.58;;;769.90;;
44462;SDS011;30170;52.190;8.702;2022-10-16T15:38:04;802.65;;;765.25;;
44462;SDS011;30170;52.190;8.702;2022-10-16T15:40:31;725.72;;;691.40;;
44462;SDS011;30170;52.190;8.702;2022-10-16T15:42:58;740.50;;;705.88;;
44462;SDS011;30170;52.190;8.702;2022-10-16T15:45:25;804.65;;;767.03;;
44462;SDS011;30170;52.190;8.702;2022-10-16T15:47:51;832.72;;;793.92;;
44462;SDS011;30170;52.190;8.702;2022-10-16T15:50:18;944.95;;;898.65;;
44462;SDS011;30170;52.190;8.702;2022-10-16T15:52:45;877.25;;;834.90;;
44462;SDS011;30170;52.190;8.702;2022-10-16T15:55:13;997.42;;;947.63;;
44462;SDS011;30170;52.190;8.702;2022-10-16T15:57:40;904.60;;;858.70;;
44462;SDS011;30170;52.190;8.702;2022-10-16T16:00:09;965.83;;;917.65;;
44462;SDS011;30170;52.190;8.702;2022-10-16T16:02:39;854.25;;;813.90;;
44462;SDS011;30170;52.190;8.702;2022-10-16T16:05:07;954.78;;;908.08;;
44462;SDS011;30170;52.190;8.702;2022-10-16T16:07:35;957.75;;;910.72;;
44462;SDS011;30170;52.190;8.702;2022-10-16T16:10:03;880.30;;;838.03;;
44462;SDS011;30170;52.190;8.702;2022-10-16T16:12:32;965.78;;;918.50;;
44462;SDS011;30170;52.190;8.702;2022-10-16T16:14:59;800.53;;;762.60;;
44462;SDS011;30170;52.190;8.702;2022-10-16T16:17:31;735.50;;;700.80;;
44462;SDS011;30170;52.190;8.702;2022-10-16T16:19:59;805.85;;;768.47;;
44462;SDS011;30170;52.190;8.702;2022-10-16T16:22:27;781.72;;;745.03;;
44462;SDS011;30170;52.190;8.702;2022-10-16T16:24:54;917.60;;;872.42;;
44462;SDS011;30170;52.190;8.702;2022-10-16T16:27:21;911.83;;;866.65;;
44462;SDS011;30170;52.190;8.702;2022-10-16T16:29:51;942.60;;;896.28;;
44462;SDS011;30170;52.190;8.702;2022-10-16T16:32:19;817.47;;;779.20;;
44462;SDS011;30170;52.190;8.702;2022-10-16T16:34:46;906.47;;;861.35;;
44462;SDS011;30170;52.190;8.702;2022-10-16T16:37:13;882.78;;;838.20;;
44462;SDS011;30170;52.190;8.702;2022-10-16T16:39:40;922.40;;;876.67;;